Time;durP1;ratioP1;P1;durP2;ratioP2;P2;SDS_P1;SDS_P2;PMS_P1;PMS_P2;Temp;Humidity;BMP_temperature;BMP_pressure;BME280_temperature;BME280_humidity;BME280_pressure;Samples;Min_cycle;Max_cycle;Signal;HPM_P1;HPM_P2
2023/01/12 00:07:11;;;;;;;53.1;34.9;;;;;;;3.9;79.8;98840;;;;
2023/01/12 00:17:13;;;;;;;27.9;19.2;;;;;;;4.2;78.9;98840;;;;
2023/01/12 00:27:11;;;;;;;27.9;19.2;;;;;;;4.5;78.8;98850;;;;
2023/01/12 00:37:10;;;;;;;27.9;19.2;;;;;;;4.8;78.9;98860;;;;
2023/01/12 00:47:11;;;;;;;24.1;14.5;;;;;;;5;79.1;98880;;;;
2023/01/12 00:58:11;;;;;;;24.1;14.5;;;;;;;5;79.1;98880;;;;
2023/01/12 01:08:11;;;;;;;24.1;14.5;;;;;;;4.7;79.5;98890;;;;
2023/01/12 01:18:10;;;;;;;47.7;34.4;;;;;;;4.7;80.8;98890;;;;
2023/01/12 01:28:11;;;;;;;47.7;34.4;;;;;;;4.7;80.9;98900;;;;
2023/01/12 01:39:11;;;;;;;47.7;34.4;;;;;;;4.7;80.4;98880;;;;
2023/01/12 01:50:11;;;;;;;33.9;25.1;;;;;;;4.8;80.8;98880;;;;
2023/01/12 02:00:11;;;;;;;33.9;25.1;;;;;;;4.8;81.2;98870;;;;
2023/01/12 02:16:19;;;;;;;33.9;25.1;;;;;;;4.9;81.4;98870;;;;
2023/01/12 02:21:11;;;;;;;35.2;25.4;;;;;;;4.9;81.7;98870;;;;
2023/01/12 02:32:11;;;;;;;35.2;25.4;;;;;;;5;81.7;98890;;;;
2023/01/12 02:42:43;;;;;;;35.2;25.4;;;;;;;5.1;81.9;98900;;;;
2023/01/12 02:53:11;;;;;;;24.8;19.3;;;;;;;5.1;82.1;98890;;;;
2023/01/12 03:03:11;;;;;;;24.8;19.3;;;;;;;5.1;82.6;98900;;;;
2023/01/12 03:13:11;;;;;;;24.8;19.3;;;;;;;5.3;83.1;98900;;;;
2023/01/12 03:23:11;;;;;;;15.7;10.9;;;;;;;5.4;82.9;98900;;;;
2023/01/12 03:34:11;;;;;;;15.7;10.9;;;;;;;5.5;82.6;98890;;;;
2023/01/12 03:45:11;;;;;;;15.7;10.9;;;;;;;5.5;82.3;98900;;;;
2023/01/12 03:56:11;;;;;;;28.8;21.7;;;;;;;5.6;81.9;98910;;;;
2023/01/12 04:06:11;;;;;;;28.8;21.7;;;;;;;5.5;81.6;98920;;;;
2023/01/12 04:17:12;;;;;;;35.9;28.6;;;;;;;5.6;82;98920;;;;
2023/01/12 04:27:11;;;;;;;35.9;28.6;;;;;;;5.6;81.9;98940;;;;
2023/01/12 04:38:11;;;;;;;35.9;28.6;;;;;;;5.6;81.1;98930;;;;
2023/01/12 04:48:11;;;;;;;39.3;29.3;;;;;;;5.6;81.8;98930;;;;
2023/01/12 04:58:11;;;;;;;39.3;29.3;;;;;;;5.6;82.2;98930;;;;
2023/01/12 05:19:11;;;;;;;29.9;23;;;;;;;5.7;82.4;98940;;;;
2023/01/12 05:29:11;;;;;;;29.9;23;;;;;;;5.6;82.6;98930;;;;
2023/01/12 05:40:11;;;;;;;29.9;23;;;;;;;5.7;82.8;98930;;;;
2023/01/12 05:50:11;;;;;;;42;34.7;;;;;;;5.6;82.8;98930;;;;
2023/01/12 06:00:11;;;;;;;42;34.7;;;;;;;5.5;83;98940;;;;
2023/01/12 06:13:55;;;;;;;42;34.7;;;;;;;5.4;83.4;98940;;;;
2023/01/12 06:22:11;;;;;;;29.1;20;;;;;;;5.4;83.7;98940;;;;
2023/01/12 06:32:11;;;;;;;29.1;20;;;;;;;5.3;84;98960;;;;
2023/01/12 06:43:11;;;;;;;29.1;20;;;;;;;5.3;83.9;98970;;;;
2023/01/12 06:54:11;;;;;;;25.7;19.9;;;;;;;5.3;83.9;99000;;;;
2023/01/12 07:04:11;;;;;;;25.7;19.9;;;;;;;5.2;84.2;99000;;;;
2023/01/12 07:14:11;;;;;;;25.7;19.9;;;;;;;5.2;84.9;99010;;;;
2023/01/12 07:25:11;;;;;;;23.9;19.5;;;;;;;5.4;85;99010;;;;
2023/01/12 07:35:11;;;;;;;23.9;19.5;;;;;;;5.5;84.9;99010;;;;
2023/01/12 07:46:11;;;;;;;21.8;15.5;;;;;;;5.7;84.8;99010;;;;
2023/01/12 07:57:11;;;;;;;21.8;15.5;;;;;;;5.9;84.6;99020;;;;
2023/01/12 08:07:11;;;;;;;21.8;15.5;;;;;;;6;84.3;99020;;;;
2023/01/12 08:18:11;;;;;;;30.4;23.3;;;;;;;6;84;99030;;;;
2023/01/12 08:28:11;;;;;;;30.4;23.3;;;;;;;6.1;84.1;99030;;;;
2023/01/12 08:39:11;;;;;;;30.4;23.3;;;;;;;6.4;83.4;99030;;;;
2023/01/12 08:50:11;;;;;;;9;4.9;;;;;;;6.5;83.1;99030;;;;
2023/01/12 09:01:11;;;;;;;9;4.9;;;;;;;6.5;82.9;99030;;;;
2023/01/12 09:12:11;;;;;;;9;4.9;;;;;;;6.5;82.8;99040;;;;
2023/01/12 09:22:11;;;;;;;7.9;4.5;;;;;;;6.5;82.7;99030;;;;
2023/01/12 09:33:11;;;;;;;7.9;4.5;;;;;;;6.7;83;99020;;;;
2023/01/12 09:55:11;;;;;;;6.3;3.9;;;;;;;7.6;80.1;98990;;;;
2023/01/12 10:05:11;;;;;;;6.3;3.9;;;;;;;7.8;77.7;98970;;;;
2023/01/12 10:15:11;;;;;;;8.2;4.4;;;;;;;8.2;77.8;98960;;;;
2023/01/12 10:26:11;;;;;;;8.2;4.4;;;;;;;8.6;75.8;98960;;;;
2023/01/12 10:36:11;;;;;;;8.2;4.4;;;;;;;8.9;73.6;98950;;;;
2023/01/12 10:46:11;;;;;;;5.6;3;;;;;;;9.1;72.1;98950;;;;
2023/01/12 10:57:11;;;;;;;5.6;3;;;;;;;9.3;71.7;98950;;;;
2023/01/12 11:07:11;;;;;;;5.6;3;;;;;;;9.5;70.7;98940;;;;
2023/01/12 11:17:11;;;;;;;7.7;3.6;;;;;;;9.9;69.8;98920;;;;
2023/01/12 11:27:11;;;;;;;7.7;3.6;;;;;;;10;67.4;98900;;;;
2023/01/12 11:38:11;;;;;;;7.7;3.6;;;;;;;9.6;67.7;98890;;;;
2023/01/12 11:48:11;;;;;;;6.7;2.9;;;;;;;9.4;66.8;98880;;;;
2023/01/12 11:58:11;;;;;;;6.7;2.9;;;;;;;9.4;67.2;98880;;;;
2023/01/12 12:09:11;;;;;;;6.7;2.9;;;;;;;9.4;65.9;98880;;;;
2023/01/12 12:20:11;;;;;;;4.9;2.5;;;;;;;9.1;66.3;98890;;;;
2023/01/12 12:31:12;;;;;;;4.9;2.5;;;;;;;9.4;68.1;98870;;;;
2023/01/12 12:51:11;;;;;;;4.7;2.7;;;;;;;9.8;64.6;98850;;;;
2023/01/12 13:02:11;;;;;;;4.7;2.7;;;;;;;9.8;64.7;98850;;;;
2023/01/12 13:13:11;;;;;;;4.7;2.7;;;;;;;9.7;64.8;98850;;;;
2023/01/12 13:23:11;;;;;;;5.5;2.8;;;;;;;9.5;65;98850;;;;
2023/01/12 13:33:11;;;;;;;5.5;2.8;;;;;;;9.5;64;98840;;;;
2023/01/12 13:44:11;;;;;;;5.5;2.8;;;;;;;9.3;64.5;98850;;;;
2023/01/12 13:54:11;;;;;;;5.4;2.4;;;;;;;9.1;65.5;98850;;;;
2023/01/12 14:05:11;;;;;;;5.4;2.4;;;;;;;8.8;66.1;98840;;;;
2023/01/12 14:26:12;;;;;;;5.3;2.8;;;;;;;7.9;67.8;98820;;;;
2023/01/12 14:36:11;;;;;;;5.3;2.8;;;;;;;7.6;68.1;98810;;;;
2023/01/12 14:46:26;;;;;;;4.1;2.2;;;;;;;7.3;68.6;98780;;;;
2023/01/12 14:57:11;;;;;;;4.1;2.2;;;;;;;7;69.2;98790;;;;
2023/01/12 15:08:11;;;;;;;4.1;2.2;;;;;;;6.7;69.6;98790;;;;
2023/01/12 15:30:11;;;;;;;7;4.3;;;;;;;5.9;72.3;98800;;;;
2023/01/12 15:41:12;;;;;;;7;4.3;;;;;;;5.7;73.2;98800;;;;
2023/01/12 15:51:12;;;;;;;12.4;6.4;;;;;;;5.3;74.1;98790;;;;
2023/01/12 16:01:11;;;;;;;12.4;6.4;;;;;;;5.1;73.7;98810;;;;
2023/01/12 16:12:11;;;;;;;12.4;6.4;;;;;;;4.6;74.1;98810;;;;
2023/01/12 16:22:12;;;;;;;11.4;7.3;;;;;;;4.2;75.2;98810;;;;
2023/01/12 16:32:11;;;;;;;11.4;7.3;;;;;;;3.9;76.5;98800;;;;
2023/01/12 16:42:11;;;;;;;11.4;7.3;;;;;;;3.8;79.2;98800;;;;
2023/01/12 16:53:11;;;;;;;30.8;18.4;;;;;;;4;78.4;98810;;;;
2023/01/12 17:04:11;;;;;;;30.8;18.4;;;;;;;4.4;76.9;98800;;;;
2023/01/12 17:15:11;;;;;;;10.2;4.6;;;;;;;4.5;76.7;98800;;;;
2023/01/12 17:26:11;;;;;;;10.2;4.6;;;;;;;4.6;75.6;98780;;;;
2023/01/12 17:37:11;;;;;;;10.2;4.6;;;;;;;4.7;75.7;98770;;;;
2023/01/12 17:47:11;;;;;;;9.3;5.9;;;;;;;4.9;74.9;98770;;;;
2023/01/12 17:57:11;;;;;;;9.3;5.9;;;;;;;5;74.7;98760;;;;
2023/01/12 18:07:11;;;;;;;9.3;5.9;;;;;;;5.1;74.8;98750;;;;
2023/01/12 18:17:11;;;;;;;12.9;6.8;;;;;;;5.3;75.1;98750;;;;
2023/01/12 18:28:11;;;;;;;12.9;6.8;;;;;;;5.1;75.5;98740;;;;
2023/01/12 18:38:11;;;;;;;12.9;6.8;;;;;;;5.1;75.5;98730;;;;
2023/01/12 18:49:11;;;;;;;18.6;11.4;;;;;;;5.1;75.6;98720;;;;
2023/01/12 19:00:14;;;;;;;18.6;11.4;;;;;;;5.3;74.7;98720;;;;
2023/01/12 19:11:11;;;;;;;18.6;11.4;;;;;;;5.4;74.7;98710;;;;
2023/01/12 19:32:11;;;;;;;12.7;8.1;;;;;;;5.8;74.2;98700;;;;
2023/01/12 19:43:13;;;;;;;12.7;8.1;;;;;;;5.9;74.2;98700;;;;
2023/01/12 19:53:11;;;;;;;12.6;7.3;;;;;;;6;74.1;98700;;;;
2023/01/12 20:03:11;;;;;;;12.6;7.3;;;;;;;5.9;74.6;98690;;;;
2023/01/12 20:14:11;;;;;;;15.3;8.3;;;;;;;5.8;75.4;98690;;;;
2023/01/12 20:25:11;;;;;;;15.3;8.3;;;;;;;5.9;75.6;98680;;;;
2023/01/12 20:35:11;;;;;;;15.3;8.3;;;;;;;6.1;75.6;98690;;;;
2023/01/12 20:45:12;;;;;;;10.2;5.6;;;;;;;6.4;74.5;98690;;;;
2023/01/12 20:56:11;;;;;;;10.2;5.6;;;;;;;6.4;74.2;98670;;;;
2023/01/12 21:06:11;;;;;;;10.2;5.6;;;;;;;6.2;74.7;98680;;;;
2023/01/12 21:16:11;;;;;;;9.9;5.2;;;;;;;6.2;74.9;98680;;;;
2023/01/12 21:27:11;;;;;;;9.9;5.2;;;;;;;6;75.4;98690;;;;
2023/01/12 21:37:11;;;;;;;9.9;5.2;;;;;;;5.8;75.8;98690;;;;
2023/01/12 21:47:11;;;;;;;8.2;4.5;;;;;;;5.8;76.4;98690;;;;
2023/01/12 21:57:11;;;;;;;8.2;4.5;;;;;;;5.9;77.1;98690;;;;
2023/01/12 22:08:11;;;;;;;8.2;4.5;;;;;;;6;76.8;98670;;;;
2023/01/12 22:19:11;;;;;;;9.1;5;;;;;;;6;77.2;98670;;;;
2023/01/12 22:29:11;;;;;;;9.1;5;;;;;;;5.9;77.3;98660;;;;
2023/01/12 22:39:11;;;;;;;9.1;5;;;;;;;5.9;78.2;98650;;;;
2023/01/12 22:50:11;;;;;;;6.1;3.5;;;;;;;6.1;78.6;98640;;;;
2023/01/12 23:00:11;;;;;;;6.1;3.5;;;;;;;6.1;78.6;98620;;;;
2023/01/12 23:11:11;;;;;;;6.1;3.5;;;;;;;6.3;78.4;98630;;;;
2023/01/12 23:22:11;;;;;;;3.3;2;;;;;;;6.3;78.2;98620;;;;
2023/01/12 23:33:11;;;;;;;3.3;2;;;;;;;6.4;78.1;98620;;;;
2023/01/12 23:43:11;;;;;;;3.3;2;;;;;;;6.4;78;98620;;;;
2023/01/12 23:53:11;;;;;;;5;2.5;;;;;;;6.4;78.3;98620;;;;
